sensor_id;sensor_type;location;lat;lon;timestamp;P1;durP1;ratioP1;P2;durP2;ratioP2
71503;SDS011;59323;50.874;7.028;2023-04-08T00:02:19;28.17;;;9.43;;
71503;SDS011;59323;50.874;7.028;2023-04-08T00:04:44;24.53;;;10.27;;
71503;SDS011;59323;50.874;7.028;2023-04-08T00:07:10;25.63;;;9.70;;
71503;SDS011;59323;50.874;7.028;2023-04-08T00:09:35;26.57;;;10.40;;
71503;SDS011;59323;50.874;7.028;2023-04-08T00:12:00;20.83;;;8.90;;
71503;SDS011;59323;50.874;7.028;2023-04-08T00:14:26;23.00;;;9.60;;
71503;SDS011;59323;50.874;7.028;2023-04-08T00:16:51;23.20;;;9.30;;
71503;SDS011;59323;50.874;7.028;2023-04-08T00:19:16;20.47;;;9.03;;
71503;SDS011;59323;50.874;7.028;2023-04-08T00:21:42;25.73;;;10.23;;
71503;SDS011;59323;50.874;7.028;2023-04-08T00:24:07;21.63;;;9.13;;
71503;SDS011;59323;50.874;7.028;2023-04-08T00:26:33;19.30;;;8.23;;
71503;SDS011;59323;50.874;7.028;2023-04-08T00:28:58;23.40;;;9.90;;
71503;SDS011;59323;50.874;7.028;2023-04-08T00:31:23;29.93;;;10.57;;
71503;SDS011;59323;50.874;7.028;2023-04-08T00:33:49;29.73;;;10.13;;
71503;SDS011;59323;50.874;7.028;2023-04-08T00:36:15;22.20;;;10.63;;
71503;SDS011;59323;50.874;7.028;2023-04-08T00:38:40;34.13;;;10.43;;
71503;SDS011;59323;50.874;7.028;2023-04-08T00:41:05;29.87;;;11.40;;
71503;SDS011;59323;50.874;7.028;2023-04-08T00:43:31;27.73;;;9.93;;
71503;SDS011;59323;50.874;7.028;2023-04-08T00:45:56;25.37;;;9.33;;
71503;SDS011;59323;50.874;7.028;2023-04-08T00:48:21;29.23;;;11.10;;
71503;SDS011;59323;50.874;7.028;2023-04-08T00:50:47;27.27;;;10.98;;
71503;SDS011;59323;50.874;7.028;2023-04-08T00:53:14;24.77;;;10.57;;
71503;SDS011;59323;50.874;7.028;2023-04-08T00:55:42;24.60;;;10.15;;
71503;SDS011;59323;50.874;7.028;2023-04-08T00:58:07;23.33;;;9.43;;
71503;SDS011;59323;50.874;7.028;2023-04-08T01:00:33;24.87;;;10.93;;
71503;SDS011;59323;50.874;7.028;2023-04-08T01:03:04;24.85;;;10.15;;
71503;SDS011;59323;50.874;7.028;2023-04-08T01:05:50;27.73;;;10.18;;
71503;SDS011;59323;50.874;7.028;2023-04-08T01:08:26;23.00;;;9.48;;
71503;SDS011;59323;50.874;7.028;2023-04-08T01:10:56;25.20;;;10.10;;
71503;SDS011;59323;50.874;7.028;2023-04-08T01:13:25;26.23;;;9.20;;
71503;SDS011;59323;50.874;7.028;2023-04-08T01:15:55;23.58;;;9.50;;
71503;SDS011;59323;50.874;7.028;2023-04-08T01:18:21;25.67;;;9.95;;
71503;SDS011;59323;50.874;7.028;2023-04-08T01:20:47;27.88;;;10.70;;
71503;SDS011;59323;50.874;7.028;2023-04-08T01:26:01;24.27;;;9.25;;
71503;SDS011;59323;50.874;7.028;2023-04-08T01:28:27;23.60;;;9.30;;
71503;SDS011;59323;50.874;7.028;2023-04-08T01:30:55;24.92;;;9.32;;
71503;SDS011;59323;50.874;7.028;2023-04-08T01:33:23;22.00;;;10.10;;
71503;SDS011;59323;50.874;7.028;2023-04-08T01:35:49;18.30;;;8.95;;
71503;SDS011;59323;50.874;7.028;2023-04-08T01:38:16;24.33;;;9.38;;
71503;SDS011;59323;50.874;7.028;2023-04-08T01:40:44;27.23;;;10.75;;
71503;SDS011;59323;50.874;7.028;2023-04-08T01:43:12;24.80;;;9.18;;
71503;SDS011;59323;50.874;7.028;2023-04-08T01:45:40;28.77;;;10.23;;
71503;SDS011;59323;50.874;7.028;2023-04-08T01:48:08;28.25;;;10.82;;
71503;SDS011;59323;50.874;7.028;2023-04-08T01:50:34;29.27;;;11.13;;
71503;SDS011;59323;50.874;7.028;2023-04-08T01:53:00;25.23;;;10.55;;
71503;SDS011;59323;50.874;7.028;2023-04-08T01:55:31;28.33;;;10.68;;
71503;SDS011;59323;50.874;7.028;2023-04-08T01:57:58;29.27;;;9.90;;
71503;SDS011;59323;50.874;7.028;2023-04-08T02:00:27;24.30;;;9.23;;
71503;SDS011;59323;50.874;7.028;2023-04-08T02:02:54;24.70;;;9.85;;
71503;SDS011;59323;50.874;7.028;2023-04-08T02:05:22;22.77;;;9.38;;
71503;SDS011;59323;50.874;7.028;2023-04-08T02:07:47;24.80;;;10.23;;
71503;SDS011;59323;50.874;7.028;2023-04-08T02:10:13;24.52;;;10.85;;
71503;SDS011;59323;50.874;7.028;2023-04-08T02:12:39;28.03;;;10.60;;
71503;SDS011;59323;50.874;7.028;2023-04-08T02:15:05;29.17;;;11.90;;
71503;SDS011;59323;50.874;7.028;2023-04-08T02:20:05;30.20;;;11.50;;
71503;SDS011;59323;50.874;7.028;2023-04-08T02:25:00;27.67;;;11.57;;
71503;SDS011;59323;50.874;7.028;2023-04-08T02:27:28;26.63;;;11.50;;
71503;SDS011;59323;50.874;7.028;2023-04-08T02:29:59;30.63;;;12.27;;
71503;SDS011;59323;50.874;7.028;2023-04-08T02:32:27;32.57;;;11.17;;
71503;SDS011;59323;50.874;7.028;2023-04-08T02:34:54;25.20;;;9.90;;
71503;SDS011;59323;50.874;7.028;2023-04-08T02:37:20;35.47;;;11.85;;
71503;SDS011;59323;50.874;7.028;2023-04-08T02:39:46;32.33;;;11.70;;
71503;SDS011;59323;50.874;7.028;2023-04-08T02:42:11;30.30;;;11.83;;
71503;SDS011;59323;50.874;7.028;2023-04-08T02:44:36;32.10;;;11.75;;
71503;SDS011;59323;50.874;7.028;2023-04-08T02:47:02;30.87;;;12.47;;
71503;SDS011;59323;50.874;7.028;2023-04-08T02:49:27;28.57;;;12.37;;
71503;SDS011;59323;50.874;7.028;2023-04-08T02:51:52;26.63;;;11.13;;
71503;SDS011;59323;50.874;7.028;2023-04-08T02:54:17;35.80;;;12.23;;
71503;SDS011;59323;50.874;7.028;2023-04-08T02:56:43;30.53;;;11.87;;
71503;SDS011;59323;50.874;7.028;2023-04-08T02:59:08;40.30;;;12.53;;
71503;SDS011;59323;50.874;7.028;2023-04-08T03:01:33;31.30;;;12.47;;
71503;SDS011;59323;50.874;7.028;2023-04-08T03:03:59;32.13;;;11.60;;
71503;SDS011;59323;50.874;7.028;2023-04-08T03:06:24;34.23;;;12.87;;
71503;SDS011;59323;50.874;7.028;2023-04-08T03:08:50;32.35;;;11.48;;
71503;SDS011;59323;50.874;7.028;2023-04-08T03:11:16;33.73;;;12.20;;
71503;SDS011;59323;50.874;7.028;2023-04-08T03:13:41;30.23;;;11.63;;
71503;SDS011;59323;50.874;7.028;2023-04-08T03:16:06;36.17;;;12.20;;
71503;SDS011;59323;50.874;7.028;2023-04-08T03:18:32;35.17;;;12.68;;
71503;SDS011;59323;50.874;7.028;2023-04-08T03:20:57;31.60;;;12.43;;
71503;SDS011;59323;50.874;7.028;2023-04-08T03:23:22;28.47;;;11.97;;
71503;SDS011;59323;50.874;7.028;2023-04-08T03:25:48;31.40;;;11.53;;
71503;SDS011;59323;50.874;7.028;2023-04-08T03:28:13;28.03;;;11.30;;
71503;SDS011;59323;50.874;7.028;2023-04-08T03:30:38;35.70;;;11.83;;
71503;SDS011;59323;50.874;7.028;2023-04-08T03:33:04;26.20;;;10.87;;
71503;SDS011;59323;50.874;7.028;2023-04-08T03:35:31;28.48;;;10.75;;
71503;SDS011;59323;50.874;7.028;2023-04-08T03:37:57;33.53;;;12.23;;
71503;SDS011;59323;50.874;7.028;2023-04-08T03:40:23;30.27;;;11.90;;
71503;SDS011;59323;50.874;7.028;2023-04-08T03:42:48;30.00;;;11.37;;
71503;SDS011;59323;50.874;7.028;2023-04-08T03:45:13;29.45;;;12.32;;
71503;SDS011;59323;50.874;7.028;2023-04-08T03:47:39;33.00;;;12.83;;
71503;SDS011;59323;50.874;7.028;2023-04-08T03:50:05;32.17;;;12.43;;
71503;SDS011;59323;50.874;7.028;2023-04-08T03:52:31;32.53;;;11.73;;
71503;SDS011;59323;50.874;7.028;2023-04-08T03:54:56;34.40;;;12.60;;
71503;SDS011;59323;50.874;7.028;2023-04-08T03:57:21;33.23;;;13.40;;
71503;SDS011;59323;50.874;7.028;2023-04-08T03:59:47;33.80;;;13.02;;
71503;SDS011;59323;50.874;7.028;2023-04-08T04:02:12;32.37;;;13.13;;
71503;SDS011;59323;50.874;7.028;2023-04-08T04:04:37;30.53;;;12.10;;
71503;SDS011;59323;50.874;7.028;2023-04-08T04:07:03;33.97;;;13.07;;
71503;SDS011;59323;50.874;7.028;2023-04-08T04:09:28;37.70;;;14.37;;
71503;SDS011;59323;50.874;7.028;2023-04-08T04:11:53;39.33;;;15.67;;
71503;SDS011;59323;50.874;7.028;2023-04-08T04:14:19;31.77;;;14.10;;
71503;SDS011;59323;50.874;7.028;2023-04-08T04:16:44;29.63;;;13.10;;
71503;SDS011;59323;50.874;7.028;2023-04-08T04:19:09;38.67;;;15.10;;
71503;SDS011;59323;50.874;7.028;2023-04-08T04:21:35;41.40;;;14.50;;
71503;SDS011;59323;50.874;7.028;2023-04-08T04:24:00;41.00;;;15.53;;
71503;SDS011;59323;50.874;7.028;2023-04-08T04:26:25;35.47;;;13.97;;
71503;SDS011;59323;50.874;7.028;2023-04-08T04:28:51;40.70;;;14.63;;
71503;SDS011;59323;50.874;7.028;2023-04-08T04:33:45;38.53;;;13.27;;
71503;SDS011;59323;50.874;7.028;2023-04-08T04:36:11;45.55;;;15.32;;
71503;SDS011;59323;50.874;7.028;2023-04-08T04:38:37;35.53;;;14.00;;
71503;SDS011;59323;50.874;7.028;2023-04-08T04:41:02;34.38;;;14.38;;
71503;SDS011;59323;50.874;7.028;2023-04-08T04:43:28;37.50;;;14.00;;
71503;SDS011;59323;50.874;7.028;2023-04-08T04:45:53;32.90;;;13.33;;
71503;SDS011;59323;50.874;7.028;2023-04-08T04:48:20;34.65;;;13.82;;
71503;SDS011;59323;50.874;7.028;2023-04-08T04:50:53;33.10;;;12.97;;
71503;SDS011;59323;50.874;7.028;2023-04-08T04:53:19;29.88;;;13.75;;
71503;SDS011;59323;50.874;7.028;2023-04-08T04:55:45;32.37;;;13.27;;
71503;SDS011;59323;50.874;7.028;2023-04-08T04:58:10;27.73;;;12.35;;
71503;SDS011;59323;50.874;7.028;2023-04-08T05:00:35;36.20;;;14.63;;
71503;SDS011;59323;50.874;7.028;2023-04-08T05:03:01;36.77;;;13.20;;
71503;SDS011;59323;50.874;7.028;2023-04-08T05:05:26;38.70;;;14.23;;
71503;SDS011;59323;50.874;7.028;2023-04-08T05:07:51;30.90;;;12.67;;
71503;SDS011;59323;50.874;7.028;2023-04-08T05:10:17;37.58;;;14.32;;
71503;SDS011;59323;50.874;7.028;2023-04-08T05:12:43;42.47;;;16.80;;
71503;SDS011;59323;50.874;7.028;2023-04-08T05:15:08;38.00;;;14.30;;
71503;SDS011;59323;50.874;7.028;2023-04-08T05:17:34;39.55;;;15.00;;
71503;SDS011;59323;50.874;7.028;2023-04-08T05:20:00;36.57;;;14.50;;
71503;SDS011;59323;50.874;7.028;2023-04-08T05:22:25;38.13;;;13.80;;
71503;SDS011;59323;50.874;7.028;2023-04-08T05:24:50;36.83;;;13.90;;
71503;SDS011;59323;50.874;7.028;2023-04-08T05:27:15;35.58;;;13.65;;
71503;SDS011;59323;50.874;7.028;2023-04-08T05:29:41;39.47;;;15.77;;
71503;SDS011;59323;50.874;7.028;2023-04-08T05:32:06;41.93;;;14.70;;
71503;SDS011;59323;50.874;7.028;2023-04-08T05:34:31;38.50;;;14.90;;
71503;SDS011;59323;50.874;7.028;2023-04-08T05:36:57;39.87;;;14.77;;
71503;SDS011;59323;50.874;7.028;2023-04-08T05:39:22;37.00;;;14.90;;
71503;SDS011;59323;50.874;7.028;2023-04-08T05:41:47;42.60;;;15.37;;
71503;SDS011;59323;50.874;7.028;2023-04-08T05:44:13;42.92;;;14.82;;
71503;SDS011;59323;50.874;7.028;2023-04-08T05:46:38;38.90;;;15.23;;
71503;SDS011;59323;50.874;7.028;2023-04-08T05:49:04;37.27;;;14.30;;
71503;SDS011;59323;50.874;7.028;2023-04-08T05:51:29;39.58;;;13.55;;
71503;SDS011;59323;50.874;7.028;2023-04-08T05:53:55;40.97;;;14.57;;
71503;SDS011;59323;50.874;7.028;2023-04-08T05:56:20;38.10;;;13.87;;
71503;SDS011;59323;50.874;7.028;2023-04-08T05:58:45;38.67;;;14.23;;
71503;SDS011;59323;50.874;7.028;2023-04-08T06:01:11;40.50;;;15.77;;
71503;SDS011;59323;50.874;7.028;2023-04-08T06:03:36;38.87;;;14.30;;
71503;SDS011;59323;50.874;7.028;2023-04-08T06:06:09;38.43;;;13.57;;
71503;SDS011;59323;50.874;7.028;2023-04-08T06:08:37;41.50;;;14.25;;
71503;SDS011;59323;50.874;7.028;2023-04-08T06:11:02;38.47;;;14.60;;
71503;SDS011;59323;50.874;7.028;2023-04-08T06:13:29;44.20;;;15.48;;
71503;SDS011;59323;50.874;7.028;2023-04-08T06:15:54;36.77;;;14.03;;
71503;SDS011;59323;50.874;7.028;2023-04-08T06:18:20;39.00;;;15.50;;
71503;SDS011;59323;50.874;7.028;2023-04-08T06:20:45;36.90;;;14.23;;
71503;SDS011;59323;50.874;7.028;2023-04-08T06:23:10;40.27;;;15.47;;
71503;SDS011;59323;50.874;7.028;2023-04-08T06:25:36;40.67;;;15.07;;
71503;SDS011;59323;50.874;7.028;2023-04-08T06:28:02;36.40;;;13.68;;
71503;SDS011;59323;50.874;7.028;2023-04-08T06:30:27;38.90;;;14.87;;
71503;SDS011;59323;50.874;7.028;2023-04-08T06:32:52;39.93;;;14.20;;
71503;SDS011;59323;50.874;7.028;2023-04-08T06:35:18;36.83;;;14.80;;
71503;SDS011;59323;50.874;7.028;2023-04-08T06:37:43;39.70;;;15.35;;
71503;SDS011;59323;50.874;7.028;2023-04-08T06:40:09;40.10;;;16.00;;
71503;SDS011;59323;50.874;7.028;2023-04-08T06:42:34;37.20;;;14.73;;
71503;SDS011;59323;50.874;7.028;2023-04-08T06:45:02;37.92;;;15.68;;
71503;SDS011;59323;50.874;7.028;2023-04-08T06:47:28;39.08;;;15.93;;
71503;SDS011;59323;50.874;7.028;2023-04-08T06:49:53;38.83;;;16.03;;
71503;SDS011;59323;50.874;7.028;2023-04-08T06:52:19;41.70;;;16.27;;
71503;SDS011;59323;50.874;7.028;2023-04-08T06:54:44;38.03;;;16.20;;
71503;SDS011;59323;50.874;7.028;2023-04-08T06:57:10;38.78;;;16.33;;
71503;SDS011;59323;50.874;7.028;2023-04-08T06:59:35;44.70;;;16.87;;
71503;SDS011;59323;50.874;7.028;2023-04-08T07:02:01;42.13;;;16.17;;
71503;SDS011;59323;50.874;7.028;2023-04-08T07:04:26;43.13;;;17.60;;
71503;SDS011;59323;50.874;7.028;2023-04-08T07:06:52;42.08;;;17.17;;
71503;SDS011;59323;50.874;7.028;2023-04-08T07:09:17;45.27;;;17.80;;
71503;SDS011;59323;50.874;7.028;2023-04-08T07:11:42;41.83;;;16.30;;
71503;SDS011;59323;50.874;7.028;2023-04-08T07:14:08;42.73;;;16.27;;
71503;SDS011;59323;50.874;7.028;2023-04-08T07:16:33;41.20;;;15.87;;
71503;SDS011;59323;50.874;7.028;2023-04-08T07:18:58;41.83;;;15.93;;
71503;SDS011;59323;50.874;7.028;2023-04-08T07:21:24;43.27;;;16.83;;
71503;SDS011;59323;50.874;7.028;2023-04-08T07:23:49;38.33;;;16.33;;
71503;SDS011;59323;50.874;7.028;2023-04-08T07:26:15;44.57;;;16.07;;
71503;SDS011;59323;50.874;7.028;2023-04-08T07:28:40;45.50;;;16.63;;
71503;SDS011;59323;50.874;7.028;2023-04-08T07:31:10;41.10;;;15.60;;
71503;SDS011;59323;50.874;7.028;2023-04-08T07:33:36;42.00;;;16.60;;
71503;SDS011;59323;50.874;7.028;2023-04-08T07:36:01;42.30;;;16.27;;
71503;SDS011;59323;50.874;7.028;2023-04-08T07:38:27;38.47;;;15.33;;
71503;SDS011;59323;50.874;7.028;2023-04-08T07:40:52;38.77;;;15.93;;
71503;SDS011;59323;50.874;7.028;2023-04-08T07:43:17;37.28;;;15.05;;
71503;SDS011;59323;50.874;7.028;2023-04-08T07:45:43;36.80;;;15.30;;
71503;SDS011;59323;50.874;7.028;2023-04-08T07:48:08;34.53;;;13.80;;
71503;SDS011;59323;50.874;7.028;2023-04-08T07:50:37;33.70;;;15.00;;
71503;SDS011;59323;50.874;7.028;2023-04-08T07:53:03;34.05;;;14.18;;
71503;SDS011;59323;50.874;7.028;2023-04-08T07:55:32;31.73;;;13.82;;
71503;SDS011;59323;50.874;7.028;2023-04-08T07:58:00;31.23;;;13.00;;
71503;SDS011;59323;50.874;7.028;2023-04-08T08:00:26;30.25;;;12.95;;
71503;SDS011;59323;50.874;7.028;2023-04-08T08:02:54;30.83;;;13.37;;
71503;SDS011;59323;50.874;7.028;2023-04-08T08:05:19;29.13;;;12.80;;
71503;SDS011;59323;50.874;7.028;2023-04-08T08:07:45;34.80;;;14.20;;
71503;SDS011;59323;50.874;7.028;2023-04-08T08:10:10;33.70;;;14.13;;
71503;SDS011;59323;50.874;7.028;2023-04-08T08:12:35;31.47;;;13.37;;
71503;SDS011;59323;50.874;7.028;2023-04-08T08:15:02;34.08;;;14.95;;
71503;SDS011;59323;50.874;7.028;2023-04-08T08:17:27;33.55;;;14.45;;
71503;SDS011;59323;50.874;7.028;2023-04-08T08:19:55;37.97;;;15.73;;
71503;SDS011;59323;50.874;7.028;2023-04-08T08:22:20;36.80;;;15.60;;
71503;SDS011;59323;50.874;7.028;2023-04-08T08:24:46;36.57;;;15.23;;
71503;SDS011;59323;50.874;7.028;2023-04-08T08:27:11;39.83;;;16.30;;
71503;SDS011;59323;50.874;7.028;2023-04-08T08:29:37;35.57;;;15.63;;
71503;SDS011;59323;50.874;7.028;2023-04-08T08:32:02;36.65;;;15.27;;
71503;SDS011;59323;50.874;7.028;2023-04-08T08:34:28;39.10;;;15.40;;
71503;SDS011;59323;50.874;7.028;2023-04-08T08:36:53;37.80;;;16.13;;
71503;SDS011;59323;50.874;7.028;2023-04-08T08:39:19;37.92;;;16.15;;
71503;SDS011;59323;50.874;7.028;2023-04-08T08:41:45;39.30;;;16.37;;
71503;SDS011;59323;50.874;7.028;2023-04-08T08:44:11;37.42;;;16.02;;
71503;SDS011;59323;50.874;7.028;2023-04-08T08:46:40;38.95;;;15.95;;
71503;SDS011;59323;50.874;7.028;2023-04-08T08:49:11;34.77;;;14.93;;
71503;SDS011;59323;50.874;7.028;2023-04-08T08:51:37;35.63;;;15.18;;
71503;SDS011;59323;50.874;7.028;2023-04-08T08:54:09;41.58;;;16.73;;
71503;SDS011;59323;50.874;7.028;2023-04-08T08:56:35;39.10;;;15.67;;
71503;SDS011;59323;50.874;7.028;2023-04-08T08:59:00;41.93;;;16.73;;
71503;SDS011;59323;50.874;7.028;2023-04-08T09:01:29;39.20;;;15.90;;
71503;SDS011;59323;50.874;7.028;2023-04-08T09:06:37;38.03;;;15.85;;
71503;SDS011;59323;50.874;7.028;2023-04-08T09:09:03;37.27;;;16.30;;
71503;SDS011;59323;50.874;7.028;2023-04-08T09:11:34;37.28;;;15.77;;
71503;SDS011;59323;50.874;7.028;2023-04-08T09:14:01;40.40;;;16.73;;
71503;SDS011;59323;50.874;7.028;2023-04-08T09:16:26;35.10;;;15.63;;
71503;SDS011;59323;50.874;7.028;2023-04-08T09:18:52;34.00;;;15.18;;
71503;SDS011;59323;50.874;7.028;2023-04-08T09:21:18;35.60;;;15.27;;
71503;SDS011;59323;50.874;7.028;2023-04-08T09:23:47;40.22;;;16.48;;
71503;SDS011;59323;50.874;7.028;2023-04-08T09:26:17;38.60;;;16.02;;
71503;SDS011;59323;50.874;7.028;2023-04-08T09:28:56;36.50;;;16.02;;
71503;SDS011;59323;50.874;7.028;2023-04-08T09:31:27;37.87;;;16.00;;
71503;SDS011;59323;50.874;7.028;2023-04-08T09:33:58;38.35;;;17.35;;
71503;SDS011;59323;50.874;7.028;2023-04-08T09:36:28;38.35;;;16.67;;
71503;SDS011;59323;50.874;7.028;2023-04-08T09:38:54;35.83;;;15.05;;
71503;SDS011;59323;50.874;7.028;2023-04-08T09:41:21;33.90;;;14.70;;
71503;SDS011;59323;50.874;7.028;2023-04-08T09:43:50;35.40;;;15.17;;
71503;SDS011;59323;50.874;7.028;2023-04-08T09:46:20;40.92;;;15.52;;
71503;SDS011;59323;50.874;7.028;2023-04-08T09:48:55;40.25;;;15.70;;
71503;SDS011;59323;50.874;7.028;2023-04-08T09:51:24;37.53;;;14.85;;
71503;SDS011;59323;50.874;7.028;2023-04-08T09:53:58;36.17;;;15.40;;
71503;SDS011;59323;50.874;7.028;2023-04-08T09:56:29;37.60;;;15.63;;
71503;SDS011;59323;50.874;7.028;2023-04-08T09:59:01;38.35;;;15.65;;
71503;SDS011;59323;50.874;7.028;2023-04-08T10:01:36;35.58;;;16.25;;
71503;SDS011;59323;50.874;7.028;2023-04-08T10:04:07;34.25;;;15.02;;
71503;SDS011;59323;50.874;7.028;2023-04-08T10:06:35;36.78;;;16.05;;
71503;SDS011;59323;50.874;7.028;2023-04-08T10:09:02;38.53;;;15.97;;
71503;SDS011;59323;50.874;7.028;2023-04-08T10:11:28;37.17;;;14.95;;
71503;SDS011;59323;50.874;7.028;2023-04-08T10:13:54;36.20;;;15.65;;
71503;SDS011;59323;50.874;7.028;2023-04-08T10:16:24;39.75;;;15.85;;
71503;SDS011;59323;50.874;7.028;2023-04-08T10:18:51;38.37;;;15.63;;
71503;SDS011;59323;50.874;7.028;2023-04-08T10:21:32;41.63;;;16.55;;
71503;SDS011;59323;50.874;7.028;2023-04-08T10:24:09;43.03;;;18.00;;
71503;SDS011;59323;50.874;7.028;2023-04-08T10:26:36;40.17;;;16.25;;
71503;SDS011;59323;50.874;7.028;2023-04-08T10:31:45;41.30;;;17.47;;
71503;SDS011;59323;50.874;7.028;2023-04-08T10:34:24;45.63;;;18.23;;
71503;SDS011;59323;50.874;7.028;2023-04-08T10:36:50;50.92;;;19.98;;
71503;SDS011;59323;50.874;7.028;2023-04-08T10:39:17;51.75;;;20.08;;
71503;SDS011;59323;50.874;7.028;2023-04-08T10:41:43;50.90;;;20.87;;
71503;SDS011;59323;50.874;7.028;2023-04-08T10:46:42;51.90;;;20.17;;
71503;SDS011;59323;50.874;7.028;2023-04-08T10:49:07;54.67;;;20.70;;
71503;SDS011;59323;50.874;7.028;2023-04-08T10:51:33;53.70;;;19.90;;
71503;SDS011;59323;50.874;7.028;2023-04-08T10:54:07;52.63;;;19.55;;
71503;SDS011;59323;50.874;7.028;2023-04-08T10:56:34;55.70;;;21.10;;
71503;SDS011;59323;50.874;7.028;2023-04-08T10:59:01;53.23;;;19.07;;
71503;SDS011;59323;50.874;7.028;2023-04-08T11:01:27;51.78;;;19.27;;
71503;SDS011;59323;50.874;7.028;2023-04-08T11:04:05;51.58;;;20.85;;
71503;SDS011;59323;50.874;7.028;2023-04-08T11:06:35;49.42;;;19.95;;
71503;SDS011;59323;50.874;7.028;2023-04-08T11:09:01;50.90;;;18.83;;
71503;SDS011;59323;50.874;7.028;2023-04-08T11:11:28;45.35;;;19.05;;
71503;SDS011;59323;50.874;7.028;2023-04-08T11:13:55;46.33;;;19.52;;
71503;SDS011;59323;50.874;7.028;2023-04-08T11:16:21;49.50;;;19.58;;
71503;SDS011;59323;50.874;7.028;2023-04-08T11:18:47;45.37;;;19.23;;
71503;SDS011;59323;50.874;7.028;2023-04-08T11:21:13;43.05;;;17.83;;
71503;SDS011;59323;50.874;7.028;2023-04-08T11:23:40;44.20;;;17.13;;
71503;SDS011;59323;50.874;7.028;2023-04-08T11:26:06;39.55;;;16.13;;
71503;SDS011;59323;50.874;7.028;2023-04-08T11:28:32;42.23;;;16.57;;
71503;SDS011;59323;50.874;7.028;2023-04-08T11:30:59;41.78;;;15.77;;
71503;SDS011;59323;50.874;7.028;2023-04-08T11:33:26;42.65;;;16.75;;
71503;SDS011;59323;50.874;7.028;2023-04-08T11:35:55;42.03;;;17.63;;
71503;SDS011;59323;50.874;7.028;2023-04-08T11:38:21;41.83;;;17.03;;
71503;SDS011;59323;50.874;7.028;2023-04-08T11:40:51;40.13;;;17.15;;
71503;SDS011;59323;50.874;7.028;2023-04-08T11:43:20;39.78;;;16.27;;
71503;SDS011;59323;50.874;7.028;2023-04-08T11:45:46;39.10;;;16.40;;
71503;SDS011;59323;50.874;7.028;2023-04-08T11:48:11;37.58;;;15.55;;
71503;SDS011;59323;50.874;7.028;2023-04-08T11:50:39;41.35;;;16.38;;
71503;SDS011;59323;50.874;7.028;2023-04-08T11:53:23;40.33;;;17.00;;
71503;SDS011;59323;50.874;7.028;2023-04-08T11:55:49;34.40;;;15.38;;
71503;SDS011;59323;50.874;7.028;2023-04-08T11:58:15;38.92;;;15.77;;
71503;SDS011;59323;50.874;7.028;2023-04-08T12:00:40;36.70;;;15.43;;
71503;SDS011;59323;50.874;7.028;2023-04-08T12:03:06;37.63;;;15.50;;
71503;SDS011;59323;50.874;7.028;2023-04-08T12:05:32;38.03;;;15.53;;
71503;SDS011;59323;50.874;7.028;2023-04-08T12:07:58;39.63;;;16.27;;
71503;SDS011;59323;50.874;7.028;2023-04-08T12:10:23;41.17;;;16.67;;
71503;SDS011;59323;50.874;7.028;2023-04-08T12:12:51;41.20;;;16.60;;
71503;SDS011;59323;50.874;7.028;2023-04-08T12:15:17;36.80;;;14.80;;
71503;SDS011;59323;50.874;7.028;2023-04-08T12:17:43;37.95;;;15.40;;
71503;SDS011;59323;50.874;7.028;2023-04-08T12:20:09;34.40;;;14.30;;
71503;SDS011;59323;50.874;7.028;2023-04-08T12:22:35;39.65;;;15.00;;
71503;SDS011;59323;50.874;7.028;2023-04-08T12:25:01;33.10;;;13.53;;
71503;SDS011;59323;50.874;7.028;2023-04-08T12:27:28;31.75;;;13.50;;
71503;SDS011;59323;50.874;7.028;2023-04-08T12:29:59;36.13;;;14.95;;
71503;SDS011;59323;50.874;7.028;2023-04-08T12:32:26;33.63;;;14.77;;
71503;SDS011;59323;50.874;7.028;2023-04-08T12:34:51;36.97;;;15.13;;
71503;SDS011;59323;50.874;7.028;2023-04-08T12:37:17;31.87;;;14.40;;
71503;SDS011;59323;50.874;7.028;2023-04-08T12:39:42;38.38;;;16.05;;
71503;SDS011;59323;50.874;7.028;2023-04-08T12:42:07;32.93;;;15.20;;
71503;SDS011;59323;50.874;7.028;2023-04-08T12:44:33;34.40;;;15.00;;
71503;SDS011;59323;50.874;7.028;2023-04-08T12:46:58;33.23;;;15.70;;
71503;SDS011;59323;50.874;7.028;2023-04-08T12:49:24;34.10;;;15.03;;
71503;SDS011;59323;50.874;7.028;2023-04-08T12:51:52;39.67;;;15.32;;
71503;SDS011;59323;50.874;7.028;2023-04-08T12:54:19;34.53;;;14.90;;
71503;SDS011;59323;50.874;7.028;2023-04-08T12:56:45;36.60;;;15.07;;
71503;SDS011;59323;50.874;7.028;2023-04-08T12:59:10;33.50;;;15.63;;
71503;SDS011;59323;50.874;7.028;2023-04-08T13:01:36;37.00;;;16.23;;
71503;SDS011;59323;50.874;7.028;2023-04-08T13:04:01;35.63;;;14.90;;
71503;SDS011;59323;50.874;7.028;2023-04-08T13:06:26;35.93;;;14.73;;
71503;SDS011;59323;50.874;7.028;2023-04-08T13:08:52;35.57;;;14.90;;
71503;SDS011;59323;50.874;7.028;2023-04-08T13:11:18;37.05;;;15.50;;
71503;SDS011;59323;50.874;7.028;2023-04-08T13:13:43;39.10;;;15.60;;
71503;SDS011;59323;50.874;7.028;2023-04-08T13:16:10;33.78;;;14.65;;
71503;SDS011;59323;50.874;7.028;2023-04-08T13:18:36;32.33;;;14.60;;
71503;SDS011;59323;50.874;7.028;2023-04-08T13:21:01;33.67;;;14.57;;
71503;SDS011;59323;50.874;7.028;2023-04-08T13:23:27;37.00;;;16.20;;
71503;SDS011;59323;50.874;7.028;2023-04-08T13:25:52;35.70;;;16.13;;
71503;SDS011;59323;50.874;7.028;2023-04-08T13:28:17;38.13;;;16.10;;
71503;SDS011;59323;50.874;7.028;2023-04-08T13:30:43;36.83;;;15.53;;
71503;SDS011;59323;50.874;7.028;2023-04-08T13:33:08;32.93;;;14.70;;
71503;SDS011;59323;50.874;7.028;2023-04-08T13:35:33;38.30;;;15.83;;
71503;SDS011;59323;50.874;7.028;2023-04-08T13:37:59;31.10;;;14.80;;
71503;SDS011;59323;50.874;7.028;2023-04-08T13:40:24;31.42;;;14.00;;
71503;SDS011;59323;50.874;7.028;2023-04-08T13:42:51;28.20;;;13.27;;
71503;SDS011;59323;50.874;7.028;2023-04-08T13:45:16;30.00;;;13.80;;
71503;SDS011;59323;50.874;7.028;2023-04-08T13:47:41;31.80;;;13.20;;
71503;SDS011;59323;50.874;7.028;2023-04-08T13:50:07;30.20;;;13.20;;
71503;SDS011;59323;50.874;7.028;2023-04-08T13:52:33;33.20;;;14.10;;
71503;SDS011;59323;50.874;7.028;2023-04-08T13:54:58;33.47;;;15.37;;
71503;SDS011;59323;50.874;7.028;2023-04-08T13:57:24;34.00;;;14.40;;
71503;SDS011;59323;50.874;7.028;2023-04-08T13:59:49;34.22;;;14.88;;
71503;SDS011;59323;50.874;7.028;2023-04-08T14:02:15;28.50;;;14.37;;
71503;SDS011;59323;50.874;7.028;2023-04-08T14:04:40;30.40;;;13.80;;
71503;SDS011;59323;50.874;7.028;2023-04-08T14:07:07;24.15;;;11.63;;
71503;SDS011;59323;50.874;7.028;2023-04-08T14:09:33;21.80;;;9.40;;
71503;SDS011;59323;50.874;7.028;2023-04-08T14:11:59;19.10;;;8.98;;
71503;SDS011;59323;50.874;7.028;2023-04-08T14:14:25;20.70;;;9.87;;
71503;SDS011;59323;50.874;7.028;2023-04-08T14:16:50;19.80;;;9.50;;
71503;SDS011;59323;50.874;7.028;2023-04-08T14:19:15;17.70;;;7.43;;
71503;SDS011;59323;50.874;7.028;2023-04-08T14:21:41;18.20;;;8.07;;
71503;SDS011;59323;50.874;7.028;2023-04-08T14:24:06;15.80;;;8.50;;
71503;SDS011;59323;50.874;7.028;2023-04-08T14:26:31;12.17;;;6.07;;
71503;SDS011;59323;50.874;7.028;2023-04-08T14:29:00;13.80;;;6.35;;
71503;SDS011;59323;50.874;7.028;2023-04-08T14:31:27;12.32;;;5.85;;
71503;SDS011;59323;50.874;7.028;2023-04-08T14:33:52;13.03;;;5.47;;
71503;SDS011;59323;50.874;7.028;2023-04-08T14:36:17;11.83;;;5.47;;
71503;SDS011;59323;50.874;7.028;2023-04-08T14:38:44;12.57;;;5.03;;